Walkinshaw, North Dakota
Current Conditions -  °F | °C
As of 10:53 AM on Friday 24 Oct 2014 (Local Time) from KFAR Reporting Station
Clear Clear  
Wind Chill: 56°   Ceiling: Unl
Heat Index: 56°   Visibility: 10mi
Dew Point: 41°   Wind: 12mph
Humidity: 57%   Direction: 240°WSW
Pressure: 29.83"   Gusts: NA
Location:  47°N, 97°W
Report Text: KFAR 241553Z 24010KT 10SM CLR 13/05 A2983 RMK AO2 SLP103 T01330050
Loading
Personal Weather Stations






























Interactive Weather Map
Tropical Storm Tracking
New forecast layout! Learn more

10-Day Weather Forecast

Advertisements
Track Severe Weather on mobile